createdAt,value
2023-04-27T00:00:48.047Z,3.90
2023-04-27T00:03:18.067Z,4.00
2023-04-27T00:05:46.640Z,4.00
2023-04-27T00:08:15.445Z,4.00
2023-04-27T00:10:44.251Z,4.30
2023-04-27T00:13:15.086Z,5.40
2023-04-27T00:15:45.645Z,5.10
2023-04-27T00:18:14.725Z,3.80
2023-04-27T00:20:45.564Z,3.90
2023-04-27T00:23:14.149Z,3.70
2023-04-27T00:25:44.476Z,3.70
2023-04-27T00:28:14.394Z,4.00
2023-04-27T00:30:45.233Z,5.00
2023-04-27T00:33:15.868Z,5.50
2023-04-27T00:35:44.251Z,4.40
2023-04-27T00:38:12.773Z,4.70
2023-04-27T00:40:41.099Z,5.80
2023-04-27T00:43:10.335Z,5.30
2023-04-27T00:45:48.997Z,5.70
2023-04-27T00:48:20.928Z,5.20
2023-04-27T00:50:49.917Z,7.20
2023-04-27T00:53:19.085Z,7.50
2023-04-27T00:55:47.609Z,5.80
2023-04-27T00:58:15.883Z,5.00
2023-04-27T01:00:44.279Z,5.00
2023-04-27T01:03:12.614Z,6.50
2023-04-27T01:05:42.160Z,5.10
2023-04-27T01:08:11.058Z,5.20
2023-04-27T01:10:39.755Z,5.60
2023-04-27T01:13:08.367Z,5.70
2023-04-27T01:15:39.688Z,4.10
2023-04-27T01:18:11.476Z,5.80
2023-04-27T01:20:39.944Z,4.30
2023-04-27T01:23:17.489Z,4.70
2023-04-27T01:25:48.430Z,4.80
2023-04-27T01:28:16.913Z,5.10
2023-04-27T01:30:45.856Z,4.40
2023-04-27T01:33:15.064Z,5.50
2023-04-27T01:35:43.648Z,6.00
2023-04-27T01:38:13.033Z,5.20
2023-04-27T01:40:41.443Z,5.60
2023-04-27T01:43:10.040Z,5.60
2023-04-27T01:45:38.944Z,5.10
2023-04-27T01:48:07.928Z,5.10
2023-04-27T01:50:36.528Z,5.30
2023-04-27T01:53:04.743Z,5.10
2023-04-27T01:55:32.965Z,5.50
2023-04-27T01:58:01.367Z,4.70
2023-04-27T02:00:29.956Z,5.70
2023-04-27T02:03:00.652Z,5.50
2023-04-27T02:05:29.458Z,4.80
2023-04-27T02:07:57.882Z,5.50
2023-04-27T02:10:26.362Z,5.10
2023-04-27T02:12:57.407Z,5.50
2023-04-27T02:15:26.368Z,5.40
2023-04-27T02:17:56.147Z,5.20
2023-04-27T02:20:24.707Z,5.40
2023-04-27T02:22:55.753Z,5.60
2023-04-27T02:25:28.046Z,5.20
2023-04-27T02:27:57.024Z,4.10
2023-04-27T02:30:26.025Z,5.90
2023-04-27T02:33:02.215Z,4.80
2023-04-27T02:38:01.827Z,4.70
2023-04-27T02:40:30.301Z,4.30
2023-04-27T02:42:58.996Z,3.80
2023-04-27T02:45:28.813Z,4.90
2023-04-27T02:47:57.404Z,4.40
2023-04-27T02:50:26.197Z,4.90
2023-04-27T02:52:55.621Z,4.00
2023-04-27T02:55:24.208Z,4.30
2023-04-27T02:57:52.473Z,3.40
2023-04-27T03:00:20.962Z,4.70
2023-04-27T03:02:49.221Z,4.10
2023-04-27T03:05:17.835Z,3.90
2023-04-27T03:07:46.529Z,5.00
2023-04-27T03:10:14.802Z,5.80
2023-04-27T03:12:44.925Z,5.00
2023-04-27T03:15:13.516Z,4.20
2023-04-27T03:17:42.036Z,4.50
2023-04-27T03:20:11.090Z,4.70
2023-04-27T03:22:39.504Z,4.60
2023-04-27T03:25:08.628Z,4.90
2023-04-27T03:27:37.318Z,5.00
2023-04-27T03:30:06.610Z,4.40
2023-04-27T03:32:35.125Z,5.20
2023-04-27T03:35:04.028Z,9.20
2023-04-27T03:37:32.964Z,5.70
2023-04-27T03:40:01.667Z,5.40
2023-04-27T03:42:31.173Z,5.20
2023-04-27T03:44:59.549Z,4.70
2023-04-27T03:47:28.601Z,4.50
2023-04-27T03:49:57.707Z,4.30
2023-04-27T03:52:26.650Z,3.20
2023-04-27T03:54:55.079Z,4.90
2023-04-27T03:57:23.588Z,3.50
2023-04-27T03:59:52.220Z,4.20
2023-04-27T04:02:22.510Z,4.20
2023-04-27T04:04:51.221Z,4.10
2023-04-27T04:07:19.518Z,4.30
2023-04-27T04:09:47.841Z,3.50
2023-04-27T04:12:16.611Z,3.30
2023-04-27T04:14:49.066Z,3.70
2023-04-27T04:17:17.966Z,3.90
2023-04-27T04:19:47.987Z,3.30
2023-04-27T04:22:16.477Z,4.50
2023-04-27T04:24:44.860Z,3.90
2023-04-27T04:27:13.561Z,3.20
2023-04-27T04:29:42.694Z,3.50
2023-04-27T04:32:12.487Z,4.00
2023-04-27T04:34:41.065Z,4.30
2023-04-27T04:37:09.651Z,3.40
2023-04-27T04:39:38.651Z,4.50
2023-04-27T04:42:07.651Z,4.00
2023-04-27T04:44:36.959Z,3.60
2023-04-27T04:47:06.568Z,4.00
2023-04-27T04:49:34.949Z,3.70
2023-04-27T04:52:04.465Z,3.50
2023-04-27T04:54:34.478Z,3.60
2023-04-27T04:57:03.681Z,3.10
2023-04-27T04:59:35.342Z,3.40
2023-04-27T05:02:07.006Z,5.40
2023-04-27T05:04:36.710Z,4.10
2023-04-27T05:07:06.782Z,3.60
2023-04-27T05:09:35.490Z,2.60
2023-04-27T05:12:04.127Z,2.80
2023-04-27T05:14:32.818Z,3.10
2023-04-27T05:17:01.880Z,2.60
2023-04-27T05:19:31.475Z,3.20
2023-04-27T05:21:59.737Z,3.30
2023-04-27T05:24:28.094Z,3.50
2023-04-27T05:26:56.319Z,3.20
2023-04-27T05:29:24.871Z,3.50
2023-04-27T05:31:54.090Z,3.20
2023-04-27T05:34:22.553Z,3.40
2023-04-27T05:36:56.812Z,3.90
2023-04-27T05:39:33.894Z,3.40
2023-04-27T05:42:03.874Z,3.50
2023-04-27T05:44:32.368Z,3.60
2023-04-27T05:47:01.153Z,4.20
2023-04-27T05:49:29.545Z,3.10
2023-04-27T05:51:59.259Z,3.50
2023-04-27T05:54:27.738Z,3.50
2023-04-27T05:56:55.927Z,3.90
2023-04-27T05:59:27.799Z,4.10
2023-04-27T06:01:57.260Z,3.80
2023-04-27T06:04:25.846Z,3.80
2023-04-27T06:06:54.856Z,3.70
2023-04-27T06:09:23.169Z,5.00
2023-04-27T06:11:51.766Z,3.90
2023-04-27T06:14:20.348Z,3.30
2023-04-27T06:16:49.048Z,3.20
2023-04-27T06:19:17.930Z,3.90
2023-04-27T06:21:46.645Z,3.20
2023-04-27T06:24:15.011Z,3.40
2023-04-27T06:26:43.288Z,3.10
2023-04-27T06:29:12.084Z,3.70
2023-04-27T06:31:41.406Z,3.70
2023-04-27T06:34:09.873Z,4.10
2023-04-27T06:36:38.261Z,3.60
2023-04-27T06:39:06.642Z,3.10
2023-04-27T06:41:34.829Z,3.90
2023-04-27T06:44:03.004Z,3.40
2023-04-27T06:46:31.546Z,4.00
2023-04-27T06:48:59.977Z,3.00
2023-04-27T06:51:28.667Z,3.20
2023-04-27T06:53:59.228Z,3.90
2023-04-27T06:56:27.687Z,4.60
2023-04-27T06:58:56.529Z,3.30
2023-04-27T07:01:25.107Z,4.00
2023-04-27T07:03:55.170Z,3.10
2023-04-27T07:06:25.730Z,2.70
2023-04-27T07:08:56.262Z,3.10
2023-04-27T07:11:24.850Z,3.40
2023-04-27T07:13:53.336Z,3.10
2023-04-27T07:16:21.888Z,2.80
2023-04-27T07:18:50.210Z,3.20
2023-04-27T07:21:18.470Z,3.30
2023-04-27T07:23:46.775Z,3.10
2023-04-27T07:26:15.399Z,3.50
2023-04-27T07:28:44.478Z,3.80
2023-04-27T07:31:14.372Z,4.00
2023-04-27T07:33:42.830Z,2.90
2023-04-27T07:36:11.262Z,3.70
2023-04-27T07:38:39.738Z,3.00
2023-04-27T07:41:10.526Z,3.30
2023-04-27T07:43:38.965Z,3.50
2023-04-27T07:46:07.903Z,2.60
2023-04-27T07:48:36.242Z,3.00
2023-04-27T07:51:04.530Z,2.60
2023-04-27T07:53:36.209Z,2.60
2023-04-27T07:56:06.765Z,4.10
2023-04-27T07:58:35.205Z,2.30
2023-04-27T08:01:04.310Z,2.90
2023-04-27T08:03:33.148Z,2.60
2023-04-27T08:06:02.340Z,3.40
2023-04-27T08:08:30.998Z,3.00
2023-04-27T08:10:59.289Z,2.40
2023-04-27T08:13:27.665Z,2.80
2023-04-27T08:15:58.807Z,2.70
2023-04-27T08:18:27.409Z,2.70
2023-04-27T08:20:59.470Z,2.70
2023-04-27T08:23:33.127Z,2.90
2023-04-27T08:28:29.954Z,4.30
2023-04-27T08:30:58.454Z,4.10
2023-04-27T08:33:27.328Z,5.30
2023-04-27T08:35:55.827Z,2.70
2023-04-27T08:38:25.654Z,3.30
2023-04-27T08:40:54.238Z,2.40
2023-04-27T08:43:22.503Z,2.40
2023-04-27T08:45:51.068Z,3.00
2023-04-27T08:48:20.955Z,2.70
2023-04-27T08:50:51.891Z,2.60
2023-04-27T08:53:21.662Z,2.60
2023-04-27T08:55:50.847Z,2.40
2023-04-27T08:58:19.053Z,1.80
2023-04-27T09:00:52.687Z,2.50
2023-04-27T09:06:04.545Z,2.70
2023-04-27T09:08:51.146Z,2.50
2023-04-27T09:11:40.532Z,1.90
2023-04-27T09:14:22.940Z,2.40
2023-04-27T09:17:00.164Z,2.20
2023-04-27T09:19:30.218Z,2.80
2023-04-27T09:22:05.661Z,2.40
2023-04-27T09:24:34.284Z,3.40
2023-04-27T09:27:03.424Z,3.00
2023-04-27T09:29:39.232Z,2.70
2023-04-27T09:32:17.853Z,2.70
2023-04-27T09:34:46.658Z,2.60
2023-04-27T09:37:16.693Z,2.70
2023-04-27T09:39:46.309Z,2.20
2023-04-27T09:42:16.101Z,2.40
2023-04-27T09:44:44.399Z,2.30
2023-04-27T09:47:14.815Z,2.40
2023-04-27T09:49:43.509Z,2.40
2023-04-27T09:52:11.950Z,2.50
2023-04-27T09:54:41.164Z,2.50
2023-04-27T09:57:19.221Z,2.60
2023-04-27T10:00:16.276Z,2.10
2023-04-27T10:03:25.699Z,2.70
2023-04-27T10:06:16.638Z,2.40
2023-04-27T10:08:45.655Z,2.30
2023-04-27T10:11:19.236Z,2.20
2023-04-27T10:16:23.534Z,3.00
2023-04-27T10:18:55.242Z,2.70
2023-04-27T10:21:24.065Z,2.40
2023-04-27T10:23:52.675Z,3.00
2023-04-27T10:26:25.690Z,2.30
2023-04-27T10:29:10.489Z,2.70
2023-04-27T10:31:45.308Z,3.00
2023-04-27T10:34:21.177Z,2.40
2023-04-27T10:36:49.974Z,2.70
2023-04-27T10:39:29.898Z,2.30
2023-04-27T10:42:05.401Z,2.10
2023-04-27T10:44:35.293Z,2.80
2023-04-27T10:47:15.137Z,3.40
2023-04-27T10:49:43.934Z,4.20
2023-04-27T10:52:12.657Z,2.70
2023-04-27T10:54:46.576Z,2.10
2023-04-27T10:57:15.117Z,2.30
2023-04-27T10:59:55.730Z,2.70
2023-04-27T11:02:29.028Z,2.40
2023-04-27T11:04:58.903Z,1.90
2023-04-27T11:07:29.326Z,2.20
2023-04-27T11:09:57.631Z,2.10
2023-04-27T11:12:26.512Z,3.30
2023-04-27T11:14:58.932Z,1.90
2023-04-27T11:17:31.113Z,2.50
2023-04-27T11:19:59.439Z,2.30
2023-04-27T11:22:27.729Z,2.30
2023-04-27T11:24:56.572Z,2.60
2023-04-27T11:27:37.351Z,2.80
2023-04-27T11:30:18.876Z,2.70
2023-04-27T11:32:48.372Z,2.00
2023-04-27T11:35:18.493Z,2.60
2023-04-27T11:37:58.346Z,4.20
2023-04-27T11:40:28.776Z,2.20
2023-04-27T11:43:03.502Z,2.30
2023-04-27T11:45:32.199Z,2.70
2023-04-27T11:48:01.318Z,1.90
2023-04-27T11:50:29.789Z,2.40
2023-04-27T11:53:01.208Z,2.30
2023-04-27T11:55:29.718Z,2.60
2023-04-27T11:57:59.471Z,2.60
2023-04-27T12:00:27.937Z,4.50
2023-04-27T12:02:58.201Z,2.40
2023-04-27T12:05:27.542Z,2.30
2023-04-27T12:07:56.885Z,1.80
2023-04-27T12:10:25.767Z,2.10
2023-04-27T12:12:54.048Z,2.80
2023-04-27T12:15:22.232Z,2.20
2023-04-27T12:17:51.044Z,2.70
2023-04-27T12:20:19.319Z,2.90
2023-04-27T12:22:47.796Z,2.50
2023-04-27T12:25:17.627Z,2.40
2023-04-27T12:27:48.172Z,2.50
2023-04-27T12:30:17.853Z,3.30
2023-04-27T12:32:46.464Z,3.20
2023-04-27T12:35:14.940Z,2.70
2023-04-27T12:37:43.621Z,3.20
2023-04-27T12:40:12.667Z,2.20
2023-04-27T12:42:41.219Z,2.80
2023-04-27T12:45:10.132Z,2.40
2023-04-27T12:47:58.314Z,2.60
2023-04-27T12:50:27.761Z,2.70
2023-04-27T12:52:56.242Z,2.20
2023-04-27T12:55:33.196Z,2.40
2023-04-27T12:58:04.843Z,2.40
2023-04-27T13:00:34.414Z,1.80
2023-04-27T13:03:02.818Z,1.70
2023-04-27T13:05:32.288Z,2.40
2023-04-27T13:08:00.772Z,2.80
2023-04-27T13:10:29.887Z,2.60
2023-04-27T13:12:59.735Z,2.00
2023-04-27T13:15:28.782Z,2.20
2023-04-27T13:17:59.153Z,3.50
2023-04-27T13:20:27.842Z,3.70
2023-04-27T13:22:56.188Z,2.40
2023-04-27T13:25:24.777Z,2.70
2023-04-27T13:27:54.214Z,3.00
2023-04-27T13:30:22.775Z,1.70
2023-04-27T13:32:53.302Z,2.00
2023-04-27T13:35:21.687Z,1.40
2023-04-27T13:37:50.077Z,1.60
2023-04-27T13:40:18.590Z,1.70
2023-04-27T13:42:46.864Z,2.40
2023-04-27T13:45:15.462Z,1.70
2023-04-27T13:47:44.096Z,2.30
2023-04-27T13:50:13.358Z,2.30
2023-04-27T13:52:41.631Z,1.90
2023-04-27T13:55:11.733Z,2.40
2023-04-27T13:57:40.221Z,1.90
2023-04-27T14:00:11.801Z,1.70
2023-04-27T14:02:42.170Z,1.90
2023-04-27T14:05:11.437Z,2.00
2023-04-27T14:07:39.802Z,1.80
2023-04-27T14:10:09.028Z,1.80
2023-04-27T14:12:37.390Z,2.10
2023-04-27T14:15:06.398Z,1.70
2023-04-27T14:17:34.909Z,1.90
2023-04-27T14:20:07.163Z,1.30
2023-04-27T14:22:37.226Z,1.30
2023-04-27T14:25:06.585Z,1.80
2023-04-27T14:27:35.082Z,2.10
2023-04-27T14:30:04.588Z,1.60
2023-04-27T14:32:36.591Z,1.60
2023-04-27T14:35:05.482Z,2.10
2023-04-27T14:37:33.885Z,1.90
2023-04-27T14:40:04.357Z,1.40
2023-04-27T14:42:32.566Z,1.20
2023-04-27T14:45:01.228Z,1.90
2023-04-27T14:47:30.429Z,1.60
2023-04-27T14:49:59.291Z,1.90
2023-04-27T14:52:29.233Z,1.90
2023-04-27T14:54:57.530Z,1.70
2023-04-27T14:57:25.917Z,2.00
2023-04-27T14:59:54.503Z,1.60
2023-04-27T15:02:23.054Z,1.90
2023-04-27T15:04:51.856Z,1.90
2023-04-27T15:07:21.517Z,2.00
2023-04-27T15:09:51.530Z,2.40
2023-04-27T15:12:19.910Z,2.10
2023-04-27T15:14:50.139Z,2.80
2023-04-27T15:17:18.519Z,2.20
2023-04-27T15:19:47.208Z,2.40
2023-04-27T15:22:15.802Z,2.50
2023-04-27T15:24:44.491Z,2.00
2023-04-27T15:27:13.591Z,2.90
2023-04-27T15:29:42.997Z,2.20
2023-04-27T15:32:11.890Z,2.40
2023-04-27T15:34:44.707Z,2.50
2023-04-27T15:37:13.612Z,2.40
2023-04-27T15:39:42.374Z,2.30
2023-04-27T15:42:10.647Z,2.50
2023-04-27T15:44:39.156Z,2.50
2023-04-27T15:47:07.481Z,2.40
2023-04-27T15:49:45.801Z,2.20
2023-04-27T15:52:22.394Z,3.40
2023-04-27T15:54:50.783Z,2.90
2023-04-27T15:57:19.064Z,2.40
2023-04-27T15:59:49.917Z,2.00
2023-04-27T16:05:10.965Z,1.90
2023-04-27T16:07:40.065Z,2.70
2023-04-27T16:10:09.585Z,1.90
2023-04-27T16:12:38.234Z,2.20
2023-04-27T16:15:10.657Z,2.30
2023-04-27T16:17:40.062Z,2.50
2023-04-27T16:20:09.786Z,2.60
2023-04-27T16:22:38.901Z,2.90
2023-04-27T16:25:11.014Z,2.70
2023-04-27T16:27:39.905Z,3.30
2023-04-27T16:30:09.382Z,3.00
2023-04-27T16:32:37.848Z,2.90
2023-04-27T16:35:07.976Z,4.50
2023-04-27T16:37:36.746Z,4.30
2023-04-27T16:40:06.766Z,4.50
2023-04-27T16:42:35.446Z,4.50
2023-04-27T16:45:06.359Z,3.70
2023-04-27T16:47:37.157Z,3.40
2023-04-27T16:50:06.620Z,4.30
2023-04-27T16:52:34.901Z,3.30
2023-04-27T16:55:03.490Z,3.60
2023-04-27T16:57:32.186Z,3.00
2023-04-27T17:00:01.812Z,3.40
2023-04-27T17:02:30.447Z,3.10
2023-04-27T17:04:59.847Z,3.80
2023-04-27T17:07:31.555Z,3.00
2023-04-27T17:10:00.280Z,3.70
2023-04-27T17:12:29.815Z,4.10
2023-04-27T17:15:07.422Z,3.90
2023-04-27T17:17:39.277Z,3.60
2023-04-27T17:20:09.705Z,2.70
2023-04-27T17:22:38.545Z,3.10
2023-04-27T17:25:08.675Z,4.10
2023-04-27T17:27:37.047Z,3.10
2023-04-27T17:30:08.235Z,3.20
2023-04-27T17:32:37.535Z,2.70
2023-04-27T17:35:06.541Z,2.70
2023-04-27T17:37:34.776Z,4.10
2023-04-27T17:40:04.196Z,3.20
2023-04-27T17:42:32.478Z,4.60
2023-04-27T17:45:00.859Z,4.20
2023-04-27T17:47:29.490Z,3.80
2023-04-27T17:49:58.152Z,3.60
2023-04-27T17:52:26.418Z,6.40
2023-04-27T17:54:55.936Z,4.00
2023-04-27T17:57:24.641Z,4.40
2023-04-27T17:59:53.112Z,3.20
2023-04-27T18:02:21.705Z,3.50
2023-04-27T18:04:53.152Z,3.90
2023-04-27T18:07:21.850Z,4.10
2023-04-27T18:09:50.660Z,5.20
2023-04-27T18:12:19.027Z,6.70
2023-04-27T18:14:47.923Z,6.50
2023-04-27T18:17:16.639Z,7.20
2023-04-27T18:19:45.203Z,5.90
2023-04-27T18:22:15.117Z,4.70
2023-04-27T18:24:44.322Z,4.40
2023-04-27T18:27:16.613Z,4.40
2023-04-27T18:29:45.389Z,4.00
2023-04-27T18:32:14.301Z,6.40
2023-04-27T18:34:43.793Z,8.40
2023-04-27T18:37:14.835Z,5.80
2023-04-27T18:39:43.635Z,6.00
2023-04-27T18:42:12.252Z,5.00
2023-04-27T18:44:43.391Z,4.00
2023-04-27T18:47:14.107Z,3.40
2023-04-27T18:49:43.321Z,7.40
2023-04-27T18:52:11.802Z,4.20
2023-04-27T18:54:40.278Z,4.10
2023-04-27T18:57:08.771Z,3.80
2023-04-27T18:59:40.540Z,5.50
2023-04-27T19:04:43.004Z,2.80
2023-04-27T19:07:17.658Z,3.90
2023-04-27T19:09:46.041Z,3.30
2023-04-27T19:12:14.435Z,3.90
2023-04-27T19:14:42.913Z,3.70
2023-04-27T19:17:12.190Z,3.40
2023-04-27T19:19:40.814Z,3.00
2023-04-27T19:22:09.758Z,4.20
2023-04-27T19:24:38.727Z,3.60
2023-04-27T19:27:08.328Z,3.80
2023-04-27T19:29:52.649Z,4.70
2023-04-27T19:34:50.160Z,4.20
2023-04-27T19:37:18.657Z,3.20
2023-04-27T19:39:47.142Z,3.80
2023-04-27T19:42:15.710Z,3.60
2023-04-27T19:44:44.099Z,3.40
2023-04-27T19:47:12.475Z,3.50
2023-04-27T19:49:41.281Z,4.50
2023-04-27T19:52:09.776Z,4.00
2023-04-27T19:54:38.542Z,4.40
2023-04-27T19:57:06.852Z,3.70
2023-04-27T19:59:35.020Z,4.10
2023-04-27T20:02:03.357Z,4.10
2023-04-27T20:04:33.059Z,3.90
2023-04-27T20:07:03.718Z,4.00
2023-04-27T20:09:33.572Z,4.50
2023-04-27T20:12:02.271Z,4.80
2023-04-27T20:14:34.317Z,3.90
2023-04-27T20:17:03.327Z,3.90
2023-04-27T20:19:34.165Z,3.90
2023-04-27T20:22:03.084Z,3.90
2023-04-27T20:24:31.652Z,3.90
2023-04-27T20:27:00.175Z,4.10
2023-04-27T20:29:28.932Z,4.60
2023-04-27T20:31:57.486Z,4.10
2023-04-27T20:34:25.906Z,4.00
2023-04-27T20:36:54.117Z,4.00
2023-04-27T20:39:24.264Z,8.80
2023-04-27T20:41:52.498Z,5.60
2023-04-27T20:44:22.649Z,4.10
2023-04-27T20:46:51.535Z,4.10
2023-04-27T20:49:32.100Z,4.10
2023-04-27T20:52:03.734Z,4.30
2023-04-27T20:54:34.893Z,4.40
2023-04-27T20:57:08.629Z,5.10
2023-04-27T20:59:36.879Z,4.90
2023-04-27T21:02:05.155Z,4.10
2023-04-27T21:04:33.798Z,4.50
2023-04-27T21:07:02.412Z,5.40
2023-04-27T21:09:31.552Z,4.10
2023-04-27T21:12:00.225Z,4.40
2023-04-27T21:14:28.725Z,4.40
2023-04-27T21:16:57.435Z,5.80
2023-04-27T21:19:26.506Z,4.50
2023-04-27T21:21:54.791Z,4.40
2023-04-27T21:24:23.345Z,3.70
2023-04-27T21:26:51.876Z,4.10
2023-04-27T21:29:20.352Z,4.30
2023-04-27T21:31:49.251Z,4.20
2023-04-27T21:34:19.079Z,3.90
2023-04-27T21:36:47.657Z,4.30
2023-04-27T21:39:16.194Z,4.60
2023-04-27T21:41:44.423Z,4.10
2023-04-27T21:44:12.913Z,4.50
2023-04-27T21:46:47.190Z,3.30
2023-04-27T21:49:18.786Z,3.30
2023-04-27T21:51:47.274Z,3.20
2023-04-27T21:54:16.098Z,3.80
2023-04-27T21:56:44.755Z,3.20
2023-04-27T21:59:12.940Z,3.00
2023-04-27T22:01:41.246Z,3.70
2023-04-27T22:04:10.218Z,3.00
2023-04-27T22:06:38.821Z,4.00
2023-04-27T22:09:08.222Z,2.70
2023-04-27T22:11:36.707Z,3.00
2023-04-27T22:14:04.985Z,3.80
2023-04-27T22:16:34.233Z,3.20
2023-04-27T22:19:03.091Z,3.30
2023-04-27T22:21:31.776Z,3.40
2023-04-27T22:24:00.469Z,3.00
2023-04-27T22:26:28.645Z,3.20
2023-04-27T22:28:57.439Z,3.10
2023-04-27T22:31:26.246Z,3.40
2023-04-27T22:33:54.828Z,2.80
2023-04-27T22:36:23.226Z,3.40
2023-04-27T22:38:51.798Z,3.40
2023-04-27T22:41:21.208Z,3.50
2023-04-27T22:43:49.598Z,3.90
2023-04-27T22:46:18.198Z,3.00
2023-04-27T22:48:46.781Z,3.00
2023-04-27T22:51:15.060Z,3.30
2023-04-27T22:53:43.540Z,3.10
2023-04-27T22:56:11.924Z,3.40
2023-04-27T22:58:40.308Z,3.30
2023-04-27T23:01:08.660Z,3.50
2023-04-27T23:03:37.262Z,3.80
2023-04-27T23:06:07.836Z,2.60
2023-04-27T23:08:37.423Z,4.10
2023-04-27T23:11:05.908Z,3.50
2023-04-27T23:13:34.813Z,3.30
2023-04-27T23:16:03.407Z,3.40
2023-04-27T23:18:32.194Z,3.30
2023-04-27T23:21:01.210Z,3.60
2023-04-27T23:23:29.586Z,3.50
2023-04-27T23:25:58.571Z,4.40
2023-04-27T23:28:27.464Z,3.20
2023-04-27T23:30:56.284Z,3.10
2023-04-27T23:33:24.748Z,3.50
2023-04-27T23:35:54.101Z,3.40
2023-04-27T23:38:24.311Z,3.10
2023-04-27T23:40:52.771Z,3.20
2023-04-27T23:43:21.154Z,2.50
2023-04-27T23:45:53.260Z,3.00
2023-04-27T23:48:22.123Z,3.80
2023-04-27T23:50:59.018Z,3.10
2023-04-27T23:53:27.739Z,3.50
2023-04-27T23:55:56.962Z,3.80
2023-04-27T23:58:26.401Z,3.20
